Time;durP1;ratioP1;P1;durP2;ratioP2;P2;SDS_P1;SDS_P2;PMS_P1;PMS_P2;Temp;Humidity;BMP_temperature;BMP_pressure;BME280_temperature;BME280_humidity;BME280_pressure;Samples;Min_cycle;Max_cycle;Signal;HPM_P1;HPM_P2
2024/01/27 00:02:08;;;;;;;26.00;7.73;;;1.70;99.90;;;;;;5045431;28;20578;-63
2024/01/27 00:04:37;;;;;;;27.43;8.73;;;1.70;99.90;;;;;;5047018;28;20213;-64
2024/01/27 00:07:05;;;;;;;17.67;7.73;;;1.60;99.90;;;;;;5045477;28;20220;-64
2024/01/27 00:09:34;;;;;;;18.37;7.40;;;1.50;99.90;;;;;;5041576;28;20304;-63
2024/01/27 00:12:02;;;;;;;15.40;7.60;;;1.50;99.90;;;;;;5044819;28;20271;-63
2024/01/27 00:14:34;;;;;;;24.67;7.97;;;1.40;99.90;;;;;;5041518;28;20373;-64
2024/01/27 00:17:02;;;;;;;16.77;8.50;;;1.40;99.90;;;;;;5042706;28;20272;-64
2024/01/27 00:19:31;;;;;;;19.83;7.70;;;1.40;99.90;;;;;;5043982;28;20213;-63
2024/01/27 00:22:00;;;;;;;19.13;7.70;;;1.40;99.90;;;;;;5042274;28;20227;-64
2024/01/27 00:24:28;;;;;;;18.90;8.20;;;1.30;99.90;;;;;;5043726;28;20227;-64
2024/01/27 00:26:56;;;;;;;18.97;8.00;;;1.30;99.90;;;;;;5045140;28;20232;-64
2024/01/27 00:29:25;;;;;;;25.23;8.50;;;1.20;99.90;;;;;;5044200;28;20292;-63
2024/01/27 00:31:54;;;;;;;17.50;7.93;;;1.20;99.90;;;;;;5058141;28;20208;-64
2024/01/27 00:34:22;;;;;;;20.63;7.83;;;1.20;99.90;;;;;;5044899;28;20220;-64
2024/01/27 00:36:52;;;;;;;21.97;8.50;;;1.20;99.90;;;;;;5043518;28;20226;-63
2024/01/27 00:39:22;;;;;;;17.83;8.00;;;1.20;99.90;;;;;;5041053;28;20225;-64
2024/01/27 00:41:52;;;;;;;19.50;8.00;;;1.20;99.90;;;;;;5041807;28;20709;-63
2024/01/27 00:44:20;;;;;;;17.27;8.27;;;1.20;99.90;;;;;;5040408;28;20201;-63
2024/01/27 00:46:48;;;;;;;17.20;7.83;;;1.10;99.90;;;;;;5045451;28;20224;-64
2024/01/27 00:49:17;;;;;;;17.77;8.10;;;1.10;99.90;;;;;;5043883;28;20235;-63
2024/01/27 00:51:45;;;;;;;21.50;7.97;;;1.10;99.90;;;;;;5042559;28;20599;-63
2024/01/27 00:54:15;;;;;;;17.13;8.23;;;1.10;99.90;;;;;;5044043;28;20227;-63
2024/01/27 00:56:43;;;;;;;23.27;8.63;;;1.10;99.90;;;;;;5045760;28;20311;-64
2024/01/27 00:59:12;;;;;;;20.13;8.03;;;1.10;99.90;;;;;;5046629;28;20262;-64
2024/01/27 01:01:40;;;;;;;27.97;8.33;;;1.10;99.90;;;;;;5045750;28;20197;-64
2024/01/27 01:04:08;;;;;;;21.77;8.37;;;1.10;99.90;;;;;;5044440;28;20703;-64
2024/01/27 01:06:40;;;;;;;17.10;8.23;;;1.10;99.90;;;;;;5046357;28;20286;-64
2024/01/27 01:09:08;;;;;;;20.60;8.20;;;1.10;99.90;;;;;;5043363;28;20587;-64
2024/01/27 01:11:38;;;;;;;30.63;9.00;;;1.00;99.90;;;;;;5044283;28;20219;-64
2024/01/27 01:14:07;;;;;;;19.50;9.00;;;0.90;99.90;;;;;;5045256;28;20394;-65
2024/01/27 01:16:36;;;;;;;19.07;8.47;;;0.90;99.90;;;;;;5042379;28;20697;-64
2024/01/27 01:19:04;;;;;;;20.40;8.73;;;0.80;99.90;;;;;;5042235;28;20619;-64
2024/01/27 01:21:32;;;;;;;19.90;8.63;;;0.80;99.90;;;;;;5042211;28;20316;-64
2024/01/27 01:24:01;;;;;;;19.17;8.70;;;0.80;99.90;;;;;;5042837;28;20231;-64
2024/01/27 01:26:29;;;;;;;19.30;8.50;;;0.70;99.90;;;;;;5045140;28;20304;-64
2024/01/27 01:28:58;;;;;;;22.53;8.23;;;0.70;99.90;;;;;;5042029;28;20237;-64
2024/01/27 01:31:27;;;;;;;22.33;8.67;;;0.70;99.90;;;;;;5040509;28;20648;-64
2024/01/27 01:33:55;;;;;;;23.43;8.60;;;0.60;99.90;;;;;;5043036;28;20283;-64
2024/01/27 01:36:24;;;;;;;25.93;9.47;;;0.60;99.90;;;;;;5043637;28;20217;-64
2024/01/27 01:38:52;;;;;;;21.07;8.43;;;0.60;99.90;;;;;;5043575;28;20292;-64
2024/01/27 01:41:19;;;;;;;26.47;8.37;;;0.60;99.90;;;;;;5040901;28;20626;-64
2024/01/27 01:43:47;;;;;;;21.30;8.77;;;0.50;99.90;;;;;;5041620;28;20560;-64
2024/01/27 01:46:17;;;;;;;21.97;9.47;;;0.50;99.90;;;;;;5043330;28;20227;-64
2024/01/27 01:48:46;;;;;;;23.03;9.10;;;0.40;99.90;;;;;;5042107;28;20232;-64
2024/01/27 01:51:15;;;;;;;26.63;9.07;;;0.40;99.90;;;;;;5042263;28;20215;-64
2024/01/27 01:53:43;;;;;;;25.10;9.63;;;0.30;99.90;;;;;;5042809;28;20311;-64
2024/01/27 01:56:14;;;;;;;25.07;9.33;;;0.30;99.90;;;;;;5045016;28;20189;-64
2024/01/27 01:58:42;;;;;;;28.83;9.10;;;0.40;99.90;;;;;;5044740;28;20648;-64
2024/01/27 02:01:10;;;;;;;22.13;10.17;;;0.50;99.90;;;;;;5038975;28;20226;-64
2024/01/27 02:03:40;;;;;;;19.10;9.47;;;0.60;99.90;;;;;;5036381;28;20220;-64
2024/01/27 02:06:08;;;;;;;21.83;10.07;;;0.60;99.90;;;;;;5041687;28;20217;-63
2024/01/27 02:08:37;;;;;;;23.97;9.57;;;0.50;99.90;;;;;;5042440;28;20312;-64
2024/01/27 02:11:05;;;;;;;27.87;10.43;;;0.50;99.90;;;;;;5046354;28;20193;-64
2024/01/27 02:13:33;;;;;;;28.13;10.00;;;0.40;99.90;;;;;;5044287;28;20226;-64
2024/01/27 02:16:02;;;;;;;31.43;11.73;;;0.40;99.90;;;;;;5044442;28;20244;-63
2024/01/27 02:18:30;;;;;;;26.07;10.63;;;0.40;99.90;;;;;;5043293;28;20231;-64
2024/01/27 02:21:00;;;;;;;24.40;10.97;;;0.40;99.90;;;;;;5043370;28;20540;-64
2024/01/27 02:23:28;;;;;;;17.07;10.50;;;0.30;99.90;;;;;;5040135;28;20263;-64
2024/01/27 02:25:57;;;;;;;23.07;10.80;;;0.20;99.90;;;;;;5041974;28;20279;-64
2024/01/27 02:28:26;;;;;;;25.43;11.20;;;0.10;99.90;;;;;;5042070;28;20253;-64
2024/01/27 02:30:54;;;;;;;25.43;10.77;;;0.10;99.90;;;;;;5041316;28;20217;-64
2024/01/27 02:33:23;;;;;;;30.63;13.07;;;0.10;99.90;;;;;;5044360;28;20720;-64
2024/01/27 02:35:51;;;;;;;25.63;11.63;;;0.10;99.90;;;;;;5039774;28;20225;-64
2024/01/27 02:38:19;;;;;;;26.17;12.70;;;0.00;99.90;;;;;;5043174;28;20586;-64
2024/01/27 02:40:47;;;;;;;33.60;12.53;;;0.00;99.90;;;;;;5045600;28;20559;-64
2024/01/27 02:43:17;;;;;;;27.90;11.93;;;-0.10;99.90;;;;;;5040915;28;20222;-64
2024/01/27 02:45:45;;;;;;;31.70;11.80;;;-0.10;99.90;;;;;;5040576;28;20694;-64
2024/01/27 02:48:13;;;;;;;26.23;11.83;;;-0.20;99.90;;;;;;5040737;28;20614;-64
2024/01/27 02:50:42;;;;;;;35.73;13.13;;;-0.20;99.90;;;;;;5042528;28;20228;-64
2024/01/27 02:53:10;;;;;;;32.47;14.13;;;0.00;99.90;;;;;;5042217;28;20200;-63
2024/01/27 02:55:38;;;;;;;29.60;13.33;;;0.00;99.90;;;;;;5040762;28;20212;-64
2024/01/27 02:58:06;;;;;;;31.47;14.30;;;0.10;99.90;;;;;;5042950;28;20243;-64
2024/01/27 03:00:36;;;;;;;37.73;14.07;;;0.00;99.90;;;;;;5057983;28;20678;-64
2024/01/27 03:03:04;;;;;;;25.50;13.03;;;0.10;99.90;;;;;;5039565;28;20592;-63
2024/01/27 03:05:33;;;;;;;30.67;13.50;;;0.10;99.90;;;;;;5043699;28;20225;-64
2024/01/27 03:08:01;;;;;;;33.50;13.13;;;0.10;99.90;;;;;;5046229;28;20232;-64
2024/01/27 03:10:31;;;;;;;30.50;12.40;;;0.10;99.90;;;;;;5043637;28;20224;-64
2024/01/27 03:12:59;;;;;;;26.70;12.37;;;0.00;99.90;;;;;;5049790;28;20232;-64
2024/01/27 03:15:27;;;;;;;29.70;13.17;;;-0.10;99.90;;;;;;5046565;28;20664;-64
2024/01/27 03:17:57;;;;;;;33.27;13.00;;;-0.10;99.90;;;;;;5042646;28;20213;-64
2024/01/27 03:20:25;;;;;;;24.60;13.60;;;-0.10;99.90;;;;;;5042177;28;25959;-64
2024/01/27 03:22:54;;;;;;;23.47;13.27;;;-0.10;99.90;;;;;;5028035;28;20202;-64
2024/01/27 03:25:22;;;;;;;38.60;14.20;;;-0.10;99.90;;;;;;5044950;28;20240;-64
2024/01/27 03:27:51;;;;;;;29.53;13.47;;;-0.10;99.90;;;;;;5046258;28;20610;-64
2024/01/27 03:30:19;;;;;;;31.10;13.63;;;-0.20;99.90;;;;;;5046605;28;20220;-64
2024/01/27 03:32:48;;;;;;;29.67;14.10;;;-0.20;99.90;;;;;;5043610;28;20252;-64
2024/01/27 03:35:18;;;;;;;33.13;14.07;;;-0.20;99.90;;;;;;5045019;28;20619;-63
2024/01/27 03:37:47;;;;;;;29.07;14.67;;;-0.20;99.90;;;;;;5045461;28;20224;-64
2024/01/27 03:40:15;;;;;;;36.20;14.33;;;-0.20;99.90;;;;;;5043926;28;20220;-64
2024/01/27 03:42:44;;;;;;;30.17;12.80;;;-0.30;99.90;;;;;;5044821;28;20221;-64
2024/01/27 03:45:12;;;;;;;31.70;13.40;;;-0.30;99.90;;;;;;5044677;28;20229;-64
2024/01/27 03:47:40;;;;;;;29.50;13.90;;;-0.40;99.90;;;;;;5045828;28;20270;-64
2024/01/27 03:50:10;;;;;;;34.33;14.07;;;-0.40;99.90;;;;;;5043427;28;20879;-64
2024/01/27 03:52:39;;;;;;;34.87;15.00;;;-0.30;99.90;;;;;;5043353;28;20198;-64
2024/01/27 03:55:08;;;;;;;36.63;14.23;;;-0.30;99.90;;;;;;5044074;28;20714;-64
2024/01/27 03:57:36;;;;;;;34.33;14.60;;;-0.20;99.90;;;;;;5042778;28;20213;-64
2024/01/27 04:00:05;;;;;;;34.33;15.00;;;-0.10;99.90;;;;;;5045587;28;20243;-64
2024/01/27 04:02:33;;;;;;;33.63;14.10;;;0.00;99.90;;;;;;5043781;28;20259;-63
2024/01/27 04:05:02;;;;;;;40.50;14.90;;;0.10;99.90;;;;;;5043300;28;20197;-64
2024/01/27 04:07:30;;;;;;;35.00;15.13;;;0.20;99.90;;;;;;5046322;28;20255;-64
2024/01/27 04:09:59;;;;;;;30.77;14.60;;;0.30;99.90;;;;;;5047911;28;20228;-64
2024/01/27 04:12:28;;;;;;;32.70;14.87;;;0.40;99.90;;;;;;5043527;28;20212;-64
2024/01/27 04:14:57;;;;;;;34.40;14.80;;;0.30;99.90;;;;;;5040967;28;20234;-63
2024/01/27 04:17:26;;;;;;;40.43;14.10;;;0.20;99.90;;;;;;5047884;28;20714;-64
2024/01/27 04:19:54;;;;;;;30.60;14.40;;;0.20;99.90;;;;;;5043220;28;20205;-64
2024/01/27 04:22:22;;;;;;;37.67;15.10;;;0.10;99.90;;;;;;5040269;28;20545;-63
2024/01/27 04:24:50;;;;;;;30.00;14.93;;;0.20;99.90;;;;;;5046284;28;20225;-64
2024/01/27 04:27:20;;;;;;;40.60;15.50;;;0.20;99.90;;;;;;5040102;28;20679;-64
2024/01/27 04:29:48;;;;;;;38.90;14.77;;;0.20;99.90;;;;;;5044556;28;20263;-64
2024/01/27 04:32:18;;;;;;;39.77;15.83;;;0.30;99.90;;;;;;5039661;28;20205;-63
2024/01/27 04:34:46;;;;;;;34.40;15.60;;;0.30;99.90;;;;;;5024044;28;20218;-63
2024/01/27 04:37:14;;;;;;;42.93;16.23;;;0.40;99.90;;;;;;5039404;28;20217;-63
2024/01/27 04:39:43;;;;;;;28.43;15.00;;;0.30;99.90;;;;;;5040732;28;20638;-63
2024/01/27 04:42:11;;;;;;;45.43;15.67;;;0.30;99.90;;;;;;5044918;28;20217;-64
2024/01/27 04:44:42;;;;;;;40.57;14.53;;;0.20;99.90;;;;;;5041313;28;20320;-64
2024/01/27 04:47:10;;;;;;;34.43;15.50;;;0.20;99.90;;;;;;5041192;28;20205;-64
2024/01/27 04:49:41;;;;;;;33.63;15.00;;;0.10;99.90;;;;;;5046507;28;20201;-64
2024/01/27 04:52:10;;;;;;;38.67;15.97;;;0.10;99.90;;;;;;5039072;28;20218;-64
2024/01/27 04:54:38;;;;;;;34.03;15.13;;;0.00;99.90;;;;;;5042491;28;20839;-64
2024/01/27 04:57:06;;;;;;;32.93;14.70;;;-0.10;99.90;;;;;;5044526;28;20591;-64
2024/01/27 04:59:35;;;;;;;35.67;15.13;;;-0.20;99.90;;;;;;5041222;28;20217;-64
2024/01/27 05:02:04;;;;;;;34.90;14.50;;;-0.20;99.90;;;;;;5042895;28;20750;-64
2024/01/27 05:04:33;;;;;;;32.40;16.40;;;-0.20;99.90;;;;;;5044123;28;20248;-64
2024/01/27 05:07:01;;;;;;;40.17;15.60;;;-0.30;99.90;;;;;;5044574;28;20216;-63
2024/01/27 05:09:29;;;;;;;37.30;14.80;;;-0.30;99.90;;;;;;5041523;28;20220;-63
2024/01/27 05:11:58;;;;;;;39.40;15.20;;;-0.30;99.90;;;;;;5041662;28;20221;-64
2024/01/27 05:14:26;;;;;;;32.10;15.47;;;-0.30;99.90;;;;;;5046500;28;20228;-63
2024/01/27 05:16:54;;;;;;;36.37;14.73;;;-0.30;99.90;;;;;;5038952;28;20202;-64
2024/01/27 05:19:23;;;;;;;34.47;14.77;;;-0.40;99.90;;;;;;5042206;28;20700;-63
2024/01/27 05:21:53;;;;;;;38.43;16.60;;;-0.40;99.90;;;;;;5044039;28;20255;-64
2024/01/27 05:24:22;;;;;;;33.47;15.93;;;-0.40;99.90;;;;;;5043462;28;20225;-64
2024/01/27 05:26:50;;;;;;;45.20;15.93;;;-0.50;99.90;;;;;;5041566;28;20224;-64
2024/01/27 05:29:18;;;;;;;34.50;15.73;;;-0.50;99.90;;;;;;5042449;28;20710;-64
2024/01/27 05:31:46;;;;;;;44.40;16.53;;;-0.50;99.90;;;;;;5040407;28;20196;-64
2024/01/27 05:34:14;;;;;;;34.90;16.10;;;-0.50;99.90;;;;;;5043797;28;20221;-66
2024/01/27 05:36:44;;;;;;;38.57;15.83;;;-0.50;99.90;;;;;;5041795;28;20311;-64
2024/01/27 05:39:12;;;;;;;30.43;15.80;;;-0.50;99.90;;;;;;5044293;28;20205;-64
2024/01/27 05:41:41;;;;;;;34.83;16.07;;;-0.40;99.90;;;;;;5039347;28;20266;-64
2024/01/27 05:44:09;;;;;;;43.37;17.00;;;-0.40;99.90;;;;;;5043127;28;20197;-63
2024/01/27 05:46:37;;;;;;;48.47;17.77;;;-0.40;99.90;;;;;;5052614;28;20224;-66
2024/01/27 05:49:05;;;;;;;35.90;17.03;;;-0.30;99.90;;;;;;5041638;28;20243;-64
2024/01/27 05:51:34;;;;;;;38.37;17.93;;;-0.30;99.90;;;;;;5042133;28;20213;-64
2024/01/27 05:54:04;;;;;;;41.63;16.43;;;-0.30;99.90;;;;;;5044262;28;20319;-64
2024/01/27 05:56:36;;;;;;;41.57;18.10;;;-0.30;99.90;;;;;;5042905;28;20556;-64
2024/01/27 05:59:04;;;;;;;54.63;19.47;;;-0.10;99.90;;;;;;5042059;28;20196;-64
2024/01/27 06:01:32;;;;;;;43.37;17.57;;;0.00;99.90;;;;;;5040354;28;20221;-64
2024/01/27 06:04:01;;;;;;;43.90;18.73;;;0.10;99.90;;;;;;5041714;28;20315;-65
2024/01/27 06:06:29;;;;;;;49.30;19.17;;;0.20;99.90;;;;;;5041851;28;20221;-65
2024/01/27 06:08:57;;;;;;;47.13;17.80;;;0.20;99.90;;;;;;5040398;28;20263;-65
2024/01/27 06:11:27;;;;;;;42.17;17.20;;;0.10;99.90;;;;;;5038925;28;20320;-64
2024/01/27 06:13:55;;;;;;;44.47;18.13;;;0.00;99.90;;;;;;5043053;28;20193;-65
2024/01/27 06:16:23;;;;;;;44.33;17.00;;;0.00;99.90;;;;;;5041258;28;20549;-65
2024/01/27 06:18:53;;;;;;;42.80;17.63;;;-0.10;99.90;;;;;;5058061;28;20213;-65
2024/01/27 06:21:21;;;;;;;50.47;18.63;;;-0.10;99.90;;;;;;5043196;28;20221;-65
2024/01/27 06:23:50;;;;;;;49.13;18.73;;;-0.10;99.90;;;;;;5039873;28;20310;-65
2024/01/27 06:26:18;;;;;;;42.93;18.13;;;0.00;99.90;;;;;;5044000;28;20314;-65
2024/01/27 06:28:47;;;;;;;38.20;17.37;;;-0.10;99.90;;;;;;5041090;28;20232;-65
2024/01/27 06:31:17;;;;;;;51.97;17.93;;;-0.20;99.90;;;;;;5055932;28;20239;-65
2024/01/27 06:33:45;;;;;;;44.00;18.57;;;-0.20;99.90;;;;;;5039341;28;20343;-64
2024/01/27 06:36:14;;;;;;;47.57;18.57;;;-0.30;99.90;;;;;;5041779;28;20221;-65
2024/01/27 06:38:42;;;;;;;47.20;18.47;;;-0.30;99.90;;;;;;5044254;28;20295;-64
2024/01/27 06:41:11;;;;;;;45.03;18.90;;;-0.30;99.90;;;;;;5045444;28;20185;-64
2024/01/27 06:43:39;;;;;;;46.23;17.67;;;-0.30;99.90;;;;;;5047060;28;20224;-64
2024/01/27 06:46:12;;;;;;;43.67;17.50;;;-0.40;99.90;;;;;;5047043;28;20909;-64
2024/01/27 06:48:41;;;;;;;50.97;19.00;;;-0.30;99.90;;;;;;5047242;28;20220;-64
2024/01/27 06:51:09;;;;;;;41.67;17.63;;;-0.20;99.90;;;;;;5043543;28;20216;-64
2024/01/27 06:53:38;;;;;;;50.27;17.17;;;-0.20;99.90;;;;;;5045006;28;20247;-64
2024/01/27 06:56:06;;;;;;;48.23;17.63;;;-0.20;99.90;;;;;;5048844;28;20196;-62
2024/01/27 06:58:35;;;;;;;47.57;17.40;;;-0.20;99.90;;;;;;5049685;28;20192;-64
2024/01/27 07:01:03;;;;;;;42.87;16.53;;;-0.10;99.90;;;;;;5044650;28;20304;-64
2024/01/27 07:03:33;;;;;;;56.07;17.40;;;-0.20;99.90;;;;;;5039569;28;20228;-65
2024/01/27 07:06:01;;;;;;;42.47;15.57;;;-0.10;99.90;;;;;;5045066;28;20220;-65
2024/01/27 07:08:30;;;;;;;41.90;15.50;;;-0.10;99.90;;;;;;5044420;28;20314;-65
2024/01/27 07:10:58;;;;;;;42.53;16.33;;;-0.10;99.90;;;;;;5044887;28;20222;-65
2024/01/27 07:13:29;;;;;;;50.63;15.80;;;-0.10;99.90;;;;;;5043927;28;20221;-65
2024/01/27 07:15:57;;;;;;;41.23;15.50;;;-0.10;99.90;;;;;;5045404;28;20578;-65
2024/01/27 07:18:29;;;;;;;47.57;16.50;;;0.10;99.90;;;;;;5044832;28;20308;-65
2024/01/27 07:20:59;;;;;;;44.27;15.73;;;0.10;99.90;;;;;;5045812;28;20228;-63
2024/01/27 07:23:28;;;;;;;39.17;14.37;;;0.10;99.90;;;;;;5046875;28;20225;-63
2024/01/27 07:25:57;;;;;;;39.40;15.43;;;0.10;99.90;;;;;;5054309;28;20214;-63
2024/01/27 07:28:25;;;;;;;58.83;16.07;;;0.10;99.90;;;;;;5052529;28;20244;-63
2024/01/27 07:30:53;;;;;;;36.20;15.93;;;0.20;99.90;;;;;;5050319;28;20224;-63
2024/01/27 07:33:22;;;;;;;49.57;16.20;;;0.20;99.90;;;;;;5051923;28;20212;-63
2024/01/27 07:35:50;;;;;;;44.67;15.53;;;0.30;99.90;;;;;;5051742;28;20256;-63
2024/01/27 07:38:20;;;;;;;35.60;15.13;;;0.40;99.90;;;;;;5047407;28;20291;-63
2024/01/27 07:40:48;;;;;;;45.87;15.27;;;0.50;99.90;;;;;;5045434;28;20188;-64
2024/01/27 07:43:16;;;;;;;44.13;14.93;;;0.50;99.90;;;;;;5064454;28;20302;-64
2024/01/27 07:45:44;;;;;;;37.67;13.73;;;0.50;99.90;;;;;;5054219;28;20586;-63
2024/01/27 07:48:13;;;;;;;41.47;15.07;;;0.50;99.90;;;;;;5050238;28;20270;-63
2024/01/27 07:50:45;;;;;;;47.47;14.90;;;0.60;99.90;;;;;;5065635;28;20228;-63
2024/01/27 07:53:13;;;;;;;41.03;14.77;;;0.70;99.90;;;;;;5051871;28;20239;-63
2024/01/27 07:55:43;;;;;;;43.37;14.30;;;0.70;99.90;;;;;;5048731;28;20197;-63
2024/01/27 07:58:11;;;;;;;35.13;14.67;;;0.60;99.90;;;;;;5047614;28;20221;-63
2024/01/27 08:00:39;;;;;;;48.53;15.20;;;0.60;99.90;;;;;;5052964;28;20669;-63
2024/01/27 08:03:08;;;;;;;44.63;14.37;;;0.70;99.90;;;;;;5054053;28;20225;-63
2024/01/27 08:05:36;;;;;;;44.27;14.03;;;0.70;99.90;;;;;;5043596;28;20219;-63
2024/01/27 08:08:05;;;;;;;40.87;14.03;;;0.90;99.90;;;;;;5043710;28;20193;-63
2024/01/27 08:10:34;;;;;;;37.53;15.13;;;0.90;99.90;;;;;;5054137;28;20216;-63
2024/01/27 08:13:04;;;;;;;34.90;13.83;;;1.00;99.90;;;;;;5053640;28;20219;-63
2024/01/27 08:15:32;;;;;;;51.90;15.47;;;1.10;99.90;;;;;;5052654;28;20229;-63
2024/01/27 08:18:00;;;;;;;39.90;14.33;;;1.10;99.90;;;;;;5050893;28;20228;-63
2024/01/27 08:20:28;;;;;;;40.07;14.30;;;1.20;99.90;;;;;;5048576;28;20236;-63
2024/01/27 08:22:57;;;;;;;36.37;14.07;;;1.20;99.90;;;;;;5045727;28;20201;-63
2024/01/27 08:25:25;;;;;;;39.77;14.13;;;1.30;99.90;;;;;;5043870;28;20593;-63
2024/01/27 08:27:56;;;;;;;51.40;14.17;;;1.30;99.90;;;;;;5047213;28;20228;-63
2024/01/27 08:30:25;;;;;;;34.60;14.07;;;1.30;99.90;;;;;;5053578;28;20250;-63
2024/01/27 08:32:54;;;;;;;34.73;13.77;;;1.40;99.90;;;;;;5049526;28;20319;-63
2024/01/27 08:35:22;;;;;;;44.63;13.60;;;1.40;99.90;;;;;;5042678;28;20648;-63
2024/01/27 08:37:50;;;;;;;39.00;14.47;;;1.50;99.90;;;;;;5052928;28;20192;-63
2024/01/27 08:40:19;;;;;;;40.83;14.80;;;1.40;99.90;;;;;;5043869;28;20216;-63
2024/01/27 08:42:47;;;;;;;42.47;13.90;;;1.50;99.90;;;;;;5036709;28;20282;-62
2024/01/27 08:45:16;;;;;;;41.60;14.60;;;1.50;99.90;;;;;;5063484;28;20251;-63
2024/01/27 08:47:45;;;;;;;37.73;14.30;;;1.50;99.90;;;;;;5043444;28;20248;-62
2024/01/27 08:50:14;;;;;;;36.67;13.90;;;1.60;99.90;;;;;;5051088;28;20234;-62
2024/01/27 08:52:43;;;;;;;36.30;13.67;;;1.70;99.90;;;;;;5047992;28;20216;-63
2024/01/27 08:55:11;;;;;;;44.87;14.40;;;1.70;99.90;;;;;;5053354;28;20228;-63
2024/01/27 08:57:39;;;;;;;34.63;13.93;;;1.80;99.90;;;;;;5046153;28;20217;-64
2024/01/27 09:00:09;;;;;;;33.47;13.50;;;1.90;99.90;;;;;;5041649;28;20275;-63
2024/01/27 09:02:37;;;;;;;42.13;13.17;;;1.90;99.90;;;;;;5045274;28;20248;-62
2024/01/27 09:05:07;;;;;;;32.50;12.47;;;1.90;99.90;;;;;;5047157;28;20200;-63
2024/01/27 09:07:36;;;;;;;33.67;12.63;;;2.00;99.90;;;;;;5050148;28;20240;-63
2024/01/27 09:10:06;;;;;;;22.97;11.07;;;2.00;99.90;;;;;;5046387;28;20232;-63
2024/01/27 09:12:34;;;;;;;30.73;12.23;;;2.10;99.90;;;;;;5049697;28;20216;-63
2024/01/27 09:15:03;;;;;;;28.20;10.80;;;2.20;99.90;;;;;;5052816;28;20216;-63
2024/01/27 09:17:31;;;;;;;40.20;12.47;;;2.30;99.90;;;;;;5053104;28;20231;-63
2024/01/27 09:19:59;;;;;;;33.70;11.03;;;2.40;99.90;;;;;;5046507;28;20207;-63
2024/01/27 09:22:29;;;;;;;35.83;11.87;;;2.50;99.90;;;;;;5046392;28;20221;-63
2024/01/27 09:24:58;;;;;;;26.53;11.37;;;2.60;99.90;;;;;;5050564;28;20224;-63
2024/01/27 09:27:26;;;;;;;22.47;10.83;;;2.80;99.90;;;;;;5051761;28;20983;-63
2024/01/27 09:29:54;;;;;;;28.30;10.40;;;2.90;99.90;;;;;;5041083;28;20675;-63
2024/01/27 09:32:22;;;;;;;26.53;10.53;;;3.00;99.90;;;;;;5050120;28;20201;-63
2024/01/27 09:34:53;;;;;;;35.40;13.77;;;3.10;99.90;;;;;;5047517;28;20284;-63
2024/01/27 09:37:22;;;;;;;60.97;24.50;;;3.20;99.90;;;;;;5049175;28;20224;-63
2024/01/27 09:39:57;;;;;;;32.87;10.83;;;3.50;99.90;;;;;;5045590;28;20312;-63
2024/01/27 09:42:25;;;;;;;25.57;9.43;;;3.70;99.90;;;;;;5052020;28;20583;-63
2024/01/27 09:44:57;;;;;;;27.53;8.60;;;3.90;99.90;;;;;;5044732;28;20278;-63
2024/01/27 09:47:25;;;;;;;28.80;8.97;;;4.10;99.90;;;;;;5046637;28;20193;-63
2024/01/27 09:49:54;;;;;;;21.50;8.47;;;4.30;99.90;;;;;;5047963;28;20196;-63
2024/01/27 09:52:24;;;;;;;23.97;9.50;;;4.50;99.90;;;;;;5047361;28;20214;-63
2024/01/27 09:54:52;;;;;;;25.33;8.03;;;4.60;99.90;;;;;;5048084;28;20310;-63
2024/01/27 09:57:24;;;;;;;22.77;6.90;;;4.80;99.90;;;;;;5051452;28;20227;-63
2024/01/27 09:59:52;;;;;;;17.27;7.23;;;5.00;99.90;;;;;;5048027;28;20220;-63
2024/01/27 10:02:22;;;;;;;25.47;7.73;;;5.20;99.90;;;;;;5043688;28;20193;-63
2024/01/27 10:04:51;;;;;;;27.07;7.07;;;5.50;99.90;;;;;;5050413;28;20193;-63
2024/01/27 10:07:20;;;;;;;23.53;6.87;;;5.80;99.90;;;;;;5040668;28;20216;-63
2024/01/27 10:09:50;;;;;;;20.50;7.27;;;6.00;99.90;;;;;;5039446;28;20225;-63
2024/01/27 10:12:21;;;;;;;21.37;6.30;;;6.00;99.90;;;;;;5046360;28;20221;-63
2024/01/27 10:14:52;;;;;;;24.13;6.67;;;6.10;99.90;;;;;;5042690;28;20228;-63
2024/01/27 10:17:29;;;;;;;21.83;6.30;;;6.10;99.90;;;;;;5046916;28;20548;-63
2024/01/27 10:20:01;;;;;;;14.93;6.20;;;6.10;99.90;;;;;;5047814;28;20199;-63
2024/01/27 10:22:30;;;;;;;21.87;6.50;;;6.10;99.90;;;;;;5048576;28;20208;-63
2024/01/27 10:24:58;;;;;;;22.43;6.53;;;6.20;99.90;;;;;;5047925;28;20685;-63
2024/01/27 10:27:26;;;;;;;22.17;6.40;;;6.20;99.90;;;;;;5051059;28;20295;-63
2024/01/27 10:29:56;;;;;;;21.57;6.83;;;6.20;99.90;;;;;;5046227;28;20236;-63
2024/01/27 10:32:24;;;;;;;20.37;5.73;;;6.50;99.90;;;;;;5043647;28;20213;-63
2024/01/27 10:35:03;;;;;;;24.13;6.00;;;6.90;99.90;;;;;;5047448;28;20193;-63
2024/01/27 10:37:31;;;;;;;19.20;5.70;;;7.10;99.90;;;;;;5049248;28;21057;-63
2024/01/27 10:40:04;;;;;;;18.57;6.23;;;7.30;99.90;;;;;;5049042;28;20279;-63
2024/01/27 10:42:32;;;;;;;17.50;5.20;;;7.30;99.90;;;;;;5046067;28;20375;-63
2024/01/27 10:45:03;;;;;;;25.73;5.90;;;7.20;99.90;;;;;;5050487;28;20247;-63
2024/01/27 10:47:32;;;;;;;14.93;5.67;;;7.20;99.90;;;;;;5047291;28;20232;-63
2024/01/27 10:50:02;;;;;;;18.23;5.07;;;7.20;99.90;;;;;;5044835;28;20203;-63
2024/01/27 10:52:32;;;;;;;22.33;5.57;;;7.30;99.90;;;;;;5045139;28;20217;-63
2024/01/27 10:55:03;;;;;;;17.00;5.00;;;7.40;99.90;;;;;;5048464;28;20217;-63
2024/01/27 10:57:32;;;;;;;16.10;5.40;;;7.30;99.90;;;;;;5044494;28;20240;-63
2024/01/27 11:00:06;;;;;;;16.90;5.20;;;7.40;99.90;;;;;;5045294;28;20694;-63
2024/01/27 11:02:36;;;;;;;19.80;5.57;;;7.50;99.90;;;;;;5047378;28;20216;-63
2024/01/27 11:05:15;;;;;;;17.07;5.40;;;7.60;99.90;;;;;;5050138;28;20548;-63
2024/01/27 11:07:43;;;;;;;24.13;5.00;;;7.60;99.90;;;;;;5050541;28;20205;-63
2024/01/27 11:10:11;;;;;;;19.83;5.07;;;7.60;99.90;;;;;;5045546;28;20245;-63
2024/01/27 11:12:40;;;;;;;17.07;5.00;;;7.80;99.90;;;;;;5048237;28;20240;-62
2024/01/27 11:15:10;;;;;;;14.47;4.93;;;7.90;99.90;;;;;;5045244;28;20278;-63
2024/01/27 11:17:42;;;;;;;21.03;5.83;;;8.10;99.90;;;;;;5045415;28;20225;-63
2024/01/27 11:20:12;;;;;;;19.17;4.90;;;8.20;99.90;;;;;;5043721;28;20219;-62
2024/01/27 11:22:43;;;;;;;17.73;5.43;;;8.20;96.80;;;;;;5047630;28;20220;-62
2024/01/27 11:25:17;;;;;;;15.27;5.00;;;8.20;99.70;;;;;;5042443;28;20962;-63
2024/01/27 11:27:47;;;;;;;15.10;5.33;;;8.30;99.20;;;;;;5042121;28;20217;-62
2024/01/27 11:30:35;;;;;;;15.10;4.90;;;8.50;97.60;;;;;;5050804;28;20223;-63
2024/01/27 11:33:05;;;;;;;13.27;5.03;;;8.60;95.60;;;;;;5049967;28;20216;-63
2024/01/27 11:35:34;;;;;;;14.23;5.03;;;8.70;90.90;;;;;;5045309;28;20221;-63
2024/01/27 11:38:03;;;;;;;16.57;5.10;;;8.80;91.20;;;;;;5049386;28;20193;-63
2024/01/27 11:40:32;;;;;;;15.50;5.00;;;8.80;91.40;;;;;;5048062;28;20208;-63
2024/01/27 11:43:02;;;;;;;18.33;4.90;;;8.90;90.90;;;;;;5044498;28;20223;-63
2024/01/27 11:45:38;;;;;;;17.10;4.80;;;9.00;84.80;;;;;;5046883;28;20565;-63
2024/01/27 11:48:08;;;;;;;28.97;9.17;;;9.00;90.00;;;;;;5051463;28;20240;-63
2024/01/27 11:50:38;;;;;;;27.37;13.20;;;9.10;87.00;;;;;;5049584;28;20281;-63
2024/01/27 11:53:09;;;;;;;24.53;6.60;;;9.30;79.70;;;;;;5048213;28;20205;-63
2024/01/27 11:55:38;;;;;;;18.53;5.60;;;9.50;66.30;;;;;;5046868;28;20208;-63
2024/01/27 11:58:10;;;;;;;10.30;4.50;;;9.60;59.80;;;;;;5047049;28;20213;-64
2024/01/27 12:00:41;;;;;;;14.90;4.83;;;9.60;53.90;;;;;;5046461;28;20224;-64
2024/01/27 12:03:09;;;;;;;13.90;4.30;;;9.60;60.20;;;;;;5045179;28;20220;-63
2024/01/27 12:05:38;;;;;;;14.80;4.47;;;9.50;63.70;;;;;;5049877;28;20266;-63
2024/01/27 12:08:09;;;;;;;9.80;3.93;;;9.60;63.00;;;;;;5048343;28;20540;-62
2024/01/27 12:10:37;;;;;;;19.00;4.40;;;9.60;66.80;;;;;;5062093;28;20216;-64
2024/01/27 12:13:07;;;;;;;15.07;4.13;;;9.60;61.30;;;;;;5048053;28;20216;-64
2024/01/27 12:15:35;;;;;;;15.40;4.33;;;9.70;32.10;;;;;;5048005;28;20597;-63
2024/01/27 12:18:06;;;;;;;16.90;4.13;;;9.80;99.90;;;;;;5045316;28;20216;-63
2024/01/27 12:20:35;;;;;;;13.60;3.97;;;9.80;92.70;;;;;;5044275;28;20734;-64
2024/01/27 12:23:04;;;;;;;13.43;4.27;;;9.80;99.90;;;;;;5045612;28;20201;-64
2024/01/27 12:25:32;;;;;;;15.80;4.20;;;10.00;99.90;;;;;;5049177;28;20304;-64
2024/01/27 12:28:03;;;;;;;11.60;3.53;;;10.00;99.90;;;;;;5046667;28;20235;-64
2024/01/27 12:30:33;;;;;;;10.53;4.00;;;10.00;99.90;;;;;;5045415;28;20243;-63
2024/01/27 12:33:02;;;;;;;10.83;4.30;;;10.00;99.90;;;;;;5043993;28;20223;-64
2024/01/27 12:35:32;;;;;;;10.80;3.80;;;10.20;99.90;;;;;;5043786;28;20242;-63
2024/01/27 12:38:01;;;;;;;7.17;3.33;;;10.40;99.90;;;;;;5045665;28;20296;-64
2024/01/27 12:40:32;;;;;;;13.80;3.70;;;10.40;99.90;;;;;;5046626;28;20221;-63
2024/01/27 12:43:00;;;;;;;10.90;4.00;;;10.50;99.90;;;;;;5046988;28;20221;-63
2024/01/27 12:45:29;;;;;;;8.57;3.60;;;10.20;99.90;;;;;;5045053;28;20224;-63
2024/01/27 12:47:59;;;;;;;10.60;3.47;;;10.10;99.90;;;;;;5042016;28;20216;-63